createdAt,value
2023-01-12T00:01:56.064Z,20.25
2023-01-12T00:04:24.233Z,18.83
2023-01-12T00:06:51.640Z,22.98
2023-01-12T00:09:19.044Z,21.45
2023-01-12T00:11:46.863Z,16.00
2023-01-12T00:14:14.640Z,17.60
2023-01-12T00:16:42.660Z,21.92
2023-01-12T00:19:18.256Z,18.10
2023-01-12T00:22:02.337Z,21.55
2023-01-12T00:24:38.194Z,20.15
2023-01-12T00:27:07.970Z,15.48
2023-01-12T00:29:36.246Z,17.52
2023-01-12T00:32:05.271Z,20.35
2023-01-12T00:34:32.997Z,20.00
2023-01-12T00:37:01.411Z,15.57
2023-01-12T00:39:29.025Z,17.02
2023-01-12T00:42:15.127Z,12.77
2023-01-12T00:45:01.216Z,11.68
2023-01-12T00:47:28.649Z,15.35
2023-01-12T00:49:56.397Z,16.65
2023-01-12T00:52:31.945Z,15.45
2023-01-12T00:55:00.040Z,14.45
2023-01-12T00:57:28.490Z,14.18
2023-01-12T00:59:58.340Z,13.62
2023-01-12T01:02:29.222Z,15.18
2023-01-12T01:04:56.856Z,12.70
2023-01-12T01:07:24.776Z,14.98
2023-01-12T01:09:52.574Z,13.75
2023-01-12T01:12:20.186Z,11.70
2023-01-12T01:14:48.327Z,12.70
2023-01-12T01:17:16.084Z,15.85
2023-01-12T01:19:43.775Z,13.25
2023-01-12T01:22:12.995Z,18.40
2023-01-12T01:24:41.805Z,14.35
2023-01-12T01:27:09.270Z,16.50
2023-01-12T01:29:36.794Z,16.85
2023-01-12T01:32:04.989Z,11.80
2023-01-12T01:34:32.491Z,13.77
2023-01-12T01:36:59.959Z,16.30
2023-01-12T01:39:28.718Z,15.23
2023-01-12T01:41:56.145Z,17.87
2023-01-12T01:44:29.773Z,18.40
2023-01-12T01:47:01.531Z,16.00
2023-01-12T01:49:41.980Z,17.45
2023-01-12T01:52:14.505Z,15.60
2023-01-12T01:54:45.270Z,12.77
2023-01-12T01:57:14.207Z,13.75
2023-01-12T01:59:45.076Z,13.00
2023-01-12T02:02:13.337Z,13.18
2023-01-12T02:04:41.110Z,18.85
2023-01-12T02:07:09.006Z,15.57
2023-01-12T02:09:36.929Z,14.02
2023-01-12T02:12:23.506Z,13.50
2023-01-12T02:15:10.897Z,13.73
2023-01-12T02:18:15.104Z,14.30
2023-01-12T02:20:42.752Z,15.27
2023-01-12T02:24:07.558Z,14.13
2023-01-12T02:26:40.984Z,17.58
2023-01-12T02:29:45.404Z,12.95
2023-01-12T02:32:16.334Z,16.12
2023-01-12T02:34:49.486Z,16.17
2023-01-12T02:37:30.209Z,13.13
2023-01-12T02:40:11.141Z,12.98
2023-01-12T02:42:42.374Z,16.02
2023-01-12T02:45:13.261Z,17.98
2023-01-12T02:48:06.155Z,16.40
2023-01-12T02:50:53.215Z,17.17
2023-01-12T02:53:29.563Z,13.90
2023-01-12T02:55:59.673Z,16.75
2023-01-12T02:58:29.507Z,14.80
2023-01-12T03:00:58.377Z,15.45
2023-01-12T03:03:26.519Z,13.32
2023-01-12T03:06:00.453Z,17.60
2023-01-12T03:08:30.358Z,15.65
2023-01-12T03:11:17.306Z,16.52
2023-01-12T03:13:54.630Z,19.60
2023-01-12T03:16:25.010Z,17.52
2023-01-12T03:19:02.382Z,18.10
2023-01-12T03:21:37.272Z,18.08
2023-01-12T03:24:08.088Z,16.65
2023-01-12T03:26:39.544Z,18.15
2023-01-12T03:29:23.368Z,18.12
2023-01-12T03:31:51.226Z,20.10
2023-01-12T03:34:18.708Z,17.92
2023-01-12T03:36:57.238Z,16.62
2023-01-12T03:39:54.493Z,16.58
2023-01-12T03:42:37.685Z,16.08
2023-01-12T03:45:35.063Z,15.35
2023-01-12T03:48:19.652Z,14.15
2023-01-12T03:50:58.080Z,15.43
2023-01-12T03:53:26.279Z,14.23
2023-01-12T03:55:56.634Z,16.42
2023-01-12T03:58:24.456Z,15.35
2023-01-12T04:00:51.953Z,18.27
2023-01-12T04:03:20.273Z,17.48
2023-01-12T04:05:47.981Z,17.58
2023-01-12T04:08:16.171Z,18.00
2023-01-12T04:10:43.815Z,19.12
2023-01-12T04:13:11.329Z,22.35
2023-01-12T04:15:42.537Z,27.40
2023-01-12T04:18:11.457Z,29.98
2023-01-12T04:20:40.260Z,23.70
2023-01-12T04:23:07.737Z,21.17
2023-01-12T04:25:36.199Z,23.38
2023-01-12T04:28:04.318Z,19.92
2023-01-12T04:30:33.302Z,24.55
2023-01-12T04:33:06.453Z,18.60
2023-01-12T04:35:34.050Z,22.77
2023-01-12T04:38:05.953Z,27.27
2023-01-12T04:40:33.420Z,20.62
2023-01-12T04:43:01.031Z,23.85
2023-01-12T04:45:30.371Z,23.23
2023-01-12T04:48:05.936Z,23.65
2023-01-12T04:50:34.176Z,23.58
2023-01-12T04:53:02.928Z,22.65
2023-01-12T04:55:30.378Z,25.52
2023-01-12T04:57:58.179Z,23.77
2023-01-12T05:00:25.933Z,20.75
2023-01-12T05:03:02.293Z,21.67
2023-01-12T05:05:31.948Z,23.00
2023-01-12T05:08:19.327Z,26.60
2023-01-12T05:10:54.460Z,19.30
2023-01-12T05:15:49.491Z,26.48
2023-01-12T05:18:16.957Z,24.42
2023-01-12T05:20:44.527Z,20.17
2023-01-12T05:23:12.219Z,21.20
2023-01-12T05:25:39.625Z,18.08
2023-01-12T05:28:07.059Z,19.37
2023-01-12T05:30:34.941Z,19.15
2023-01-12T05:33:02.444Z,22.55
2023-01-12T05:35:29.885Z,22.20
2023-01-12T05:37:57.770Z,23.08
2023-01-12T05:40:25.195Z,22.33
2023-01-12T05:43:11.163Z,24.90
2023-01-12T05:45:38.873Z,20.77
2023-01-12T05:48:06.559Z,25.55
2023-01-12T05:50:33.961Z,19.17
2023-01-12T05:53:09.158Z,24.60
2023-01-12T05:55:38.986Z,22.60
2023-01-12T05:58:06.491Z,24.83
2023-01-12T06:00:34.232Z,25.40
2023-01-12T06:03:02.950Z,28.05
2023-01-12T06:05:30.418Z,27.77
2023-01-12T06:07:58.320Z,26.08
2023-01-12T06:10:26.235Z,24.50
2023-01-12T06:13:12.317Z,26.42
2023-01-12T06:15:40.073Z,28.08
2023-01-12T06:18:07.496Z,30.70
2023-01-12T06:20:35.066Z,31.40
2023-01-12T06:23:05.058Z,28.83
2023-01-12T06:25:34.004Z,27.92
2023-01-12T06:28:01.443Z,28.98
2023-01-12T06:30:29.127Z,34.42
2023-01-12T06:33:01.552Z,30.27
2023-01-12T06:35:29.468Z,32.88
2023-01-12T06:37:57.560Z,30.35
2023-01-12T06:40:25.159Z,31.85
2023-01-12T06:42:53.017Z,31.42
2023-01-12T06:45:21.557Z,38.22
2023-01-12T06:47:50.594Z,30.92
2023-01-12T06:50:18.330Z,29.12
2023-01-12T06:52:45.997Z,28.33
2023-01-12T06:55:13.647Z,30.05
2023-01-12T06:57:41.698Z,32.63
2023-01-12T07:00:09.961Z,28.80
2023-01-12T07:02:37.412Z,27.10
2023-01-12T07:05:05.697Z,30.05
2023-01-12T07:07:33.516Z,26.95
2023-01-12T07:10:01.215Z,25.80
2023-01-12T07:12:29.135Z,30.83
2023-01-12T07:14:58.946Z,24.80
2023-01-12T07:17:26.396Z,30.70
2023-01-12T07:19:54.180Z,30.62
2023-01-12T07:22:21.875Z,30.50
2023-01-12T07:24:49.414Z,34.75
2023-01-12T07:27:17.260Z,33.03
2023-01-12T07:29:46.585Z,30.83
2023-01-12T07:32:19.620Z,29.12
2023-01-12T07:34:50.063Z,31.05
2023-01-12T07:37:17.533Z,33.70
2023-01-12T07:39:44.913Z,28.42
2023-01-12T07:42:24.755Z,31.90
2023-01-12T07:44:52.834Z,32.28
2023-01-12T07:47:21.073Z,33.33
2023-01-12T07:49:48.537Z,28.50
2023-01-12T07:52:15.941Z,33.63
2023-01-12T07:54:44.613Z,29.12
2023-01-12T07:57:12.355Z,28.40
2023-01-12T07:59:39.854Z,27.67
2023-01-12T08:02:10.873Z,24.77
2023-01-12T08:04:38.601Z,30.25
2023-01-12T08:07:05.998Z,28.80
2023-01-12T08:09:33.560Z,26.85
2023-01-12T08:12:01.392Z,25.83
2023-01-12T08:14:33.461Z,23.12
2023-01-12T08:17:01.916Z,20.35
2023-01-12T08:19:37.205Z,28.60
2023-01-12T08:22:15.819Z,30.15
2023-01-12T08:24:47.942Z,24.48
2023-01-12T08:27:16.669Z,23.85
2023-01-12T08:29:46.092Z,26.90
2023-01-12T08:32:16.311Z,28.52
2023-01-12T08:34:45.984Z,26.87
2023-01-12T08:37:14.888Z,25.35
2023-01-12T08:39:43.508Z,27.70
2023-01-12T08:42:11.308Z,26.75
2023-01-12T08:44:39.270Z,25.73
2023-01-12T08:47:15.816Z,25.83
2023-01-12T08:49:44.992Z,25.70
2023-01-12T08:52:13.621Z,23.75
2023-01-12T08:54:41.379Z,28.42
2023-01-12T08:57:09.168Z,31.73
2023-01-12T08:59:36.594Z,24.45
2023-01-12T09:02:04.181Z,30.33
2023-01-12T09:04:32.071Z,30.70
2023-01-12T09:07:00.865Z,30.40
2023-01-12T09:09:28.308Z,30.58
2023-01-12T09:11:56.051Z,31.30
2023-01-12T09:14:25.450Z,31.77
2023-01-12T09:16:53.046Z,27.95
2023-01-12T09:19:20.799Z,28.95
2023-01-12T09:21:48.231Z,27.15
2023-01-12T09:24:15.711Z,26.55
2023-01-12T09:26:45.147Z,23.73
2023-01-12T09:29:13.745Z,24.75
2023-01-12T09:31:44.263Z,25.08
2023-01-12T09:34:12.328Z,23.73
2023-01-12T09:36:40.547Z,23.77
2023-01-12T09:39:15.521Z,25.08
2023-01-12T09:42:08.896Z,24.42
2023-01-12T09:45:03.205Z,22.55
2023-01-12T09:47:41.644Z,19.42
2023-01-12T09:50:14.885Z,20.40
2023-01-12T09:52:47.326Z,23.42
2023-01-12T09:55:21.062Z,21.50
2023-01-12T09:58:10.628Z,20.88
2023-01-12T10:00:38.051Z,19.20
2023-01-12T10:03:38.625Z,19.75
2023-01-12T10:06:08.897Z,21.42
2023-01-12T10:08:37.985Z,18.67
2023-01-12T10:11:10.834Z,20.92
2023-01-12T10:14:17.362Z,21.10
2023-01-12T10:17:01.992Z,21.85
2023-01-12T10:19:46.920Z,16.48
2023-01-12T10:22:43.531Z,19.40
2023-01-12T10:25:31.425Z,19.42
2023-01-12T10:28:00.710Z,21.12
2023-01-12T10:30:30.304Z,21.75
2023-01-12T10:33:11.809Z,24.42
2023-01-12T10:35:53.106Z,20.58
2023-01-12T10:38:26.871Z,23.87
2023-01-12T10:41:22.237Z,18.27
2023-01-12T10:43:58.653Z,22.95
2023-01-12T10:46:36.042Z,20.85
2023-01-12T10:49:21.703Z,22.40
2023-01-12T10:51:52.939Z,23.90
2023-01-12T10:54:31.411Z,21.92
2023-01-12T10:57:03.729Z,21.45
2023-01-12T10:59:33.022Z,22.23
2023-01-12T11:02:07.334Z,20.00
2023-01-12T11:04:43.245Z,20.05
2023-01-12T11:07:18.974Z,22.58
2023-01-12T11:09:46.537Z,23.30
2023-01-12T11:12:20.157Z,17.60
2023-01-12T11:15:10.441Z,22.40
2023-01-12T11:17:56.449Z,21.17
2023-01-12T11:20:28.712Z,21.25
2023-01-12T11:23:01.366Z,17.42
2023-01-12T11:25:33.339Z,23.45
2023-01-12T11:28:05.750Z,21.65
2023-01-12T11:30:41.195Z,22.52
2023-01-12T11:33:29.933Z,24.63
2023-01-12T11:36:07.918Z,22.35
2023-01-12T11:38:39.100Z,26.95
2023-01-12T11:41:20.839Z,23.45
2023-01-12T11:43:59.198Z,28.00
2023-01-12T11:46:40.261Z,25.08
2023-01-12T11:49:24.928Z,21.85
2023-01-12T11:51:56.507Z,23.70
2023-01-12T11:54:27.118Z,27.23
2023-01-12T11:57:16.581Z,23.48
2023-01-12T11:59:56.791Z,23.45
2023-01-12T12:02:39.923Z,20.48
2023-01-12T12:05:42.854Z,24.12
2023-01-12T12:08:37.052Z,24.15
2023-01-12T12:11:14.181Z,24.23
2023-01-12T12:14:13.191Z,26.08
2023-01-12T12:17:00.548Z,26.45
2023-01-12T12:20:08.976Z,25.98
2023-01-12T12:22:51.975Z,21.77
2023-01-12T12:25:28.171Z,23.75
2023-01-12T12:27:58.873Z,25.02
2023-01-12T12:30:29.269Z,25.40
2023-01-12T12:33:07.486Z,22.50
2023-01-12T12:35:53.164Z,24.27
2023-01-12T12:39:05.819Z,23.98
2023-01-12T12:42:10.711Z,30.92
2023-01-12T12:45:14.589Z,27.42
2023-01-12T12:47:59.358Z,22.45
2023-01-12T12:50:55.192Z,22.35
2023-01-12T12:53:33.417Z,22.05
2023-01-12T12:56:07.198Z,23.45
2023-01-12T12:58:46.236Z,22.02
2023-01-12T13:01:23.460Z,20.52
2023-01-12T13:04:05.814Z,30.92
2023-01-12T13:06:35.512Z,19.65
2023-01-12T13:09:22.868Z,19.00
2023-01-12T13:12:13.558Z,21.58
2023-01-12T13:14:42.969Z,17.98
2023-01-12T13:17:19.838Z,19.55
2023-01-12T13:20:24.714Z,18.12
2023-01-12T13:22:53.356Z,18.35
2023-01-12T13:25:20.771Z,17.55
2023-01-12T13:28:00.563Z,16.70
2023-01-12T13:30:28.425Z,16.25
2023-01-12T13:33:17.458Z,19.40
2023-01-12T13:35:45.874Z,18.85
2023-01-12T13:38:29.113Z,19.92
2023-01-12T13:41:38.814Z,20.17
2023-01-12T13:44:09.236Z,17.65
2023-01-12T13:46:51.352Z,19.73
2023-01-12T13:49:36.141Z,19.80
2023-01-12T13:52:35.959Z,15.70
2023-01-12T13:55:17.373Z,18.52
2023-01-12T13:58:05.368Z,19.45
2023-01-12T14:00:34.127Z,18.87
2023-01-12T14:03:03.686Z,16.20
2023-01-12T14:06:02.991Z,17.02
2023-01-12T14:08:52.517Z,18.42
2023-01-12T14:11:26.191Z,15.48
2023-01-12T14:14:19.742Z,15.47
2023-01-12T14:17:06.080Z,16.15
2023-01-12T14:19:34.157Z,13.57
2023-01-12T14:22:04.542Z,15.90
2023-01-12T14:24:31.996Z,16.80
2023-01-12T14:26:59.723Z,15.45
2023-01-12T14:29:28.497Z,14.75
2023-01-12T14:31:56.021Z,14.15
2023-01-12T14:34:32.440Z,16.48
2023-01-12T14:37:00.565Z,17.87
2023-01-12T14:39:31.330Z,16.87
2023-01-12T14:42:17.493Z,16.20
2023-01-12T14:45:13.259Z,18.98
2023-01-12T14:50:14.803Z,86.57
2023-01-12T14:52:46.528Z,19.65
2023-01-12T14:55:28.161Z,19.77
2023-01-12T14:58:00.986Z,25.65
2023-01-12T15:00:32.548Z,19.15
2023-01-12T15:03:04.839Z,17.98
2023-01-12T15:05:33.629Z,18.65
2023-01-12T15:08:22.150Z,21.20
2023-01-12T15:11:05.880Z,20.98
2023-01-12T15:13:35.024Z,33.63
2023-01-12T15:16:23.407Z,35.90
2023-01-12T15:19:10.761Z,33.05
2023-01-12T15:21:57.704Z,44.20
2023-01-12T15:24:54.337Z,60.42
2023-01-12T15:27:23.560Z,62.78
2023-01-12T15:29:51.560Z,51.67
2023-01-12T15:32:21.900Z,49.65
2023-01-12T15:38:09.997Z,46.53
2023-01-12T15:40:40.335Z,48.90
2023-01-12T15:43:13.737Z,41.08
2023-01-12T15:45:43.631Z,42.53
2023-01-12T15:48:11.459Z,44.08
2023-01-12T15:50:44.771Z,53.58
2023-01-12T15:53:22.367Z,51.47
2023-01-12T15:55:51.368Z,51.70
2023-01-12T15:58:19.711Z,52.88
2023-01-12T16:00:47.439Z,51.15
2023-01-12T16:03:38.178Z,45.40
2023-01-12T16:06:02.683Z,53.38
2023-01-12T16:08:30.462Z,45.78
2023-01-12T16:11:11.540Z,47.22
2023-01-12T16:13:40.252Z,38.40
2023-01-12T16:16:09.679Z,48.17
2023-01-12T16:18:37.285Z,55.12
2023-01-12T16:21:05.210Z,62.47
2023-01-12T16:23:33.286Z,63.25
2023-01-12T16:26:01.701Z,63.58
2023-01-12T16:28:29.688Z,57.70
2023-01-12T16:30:57.961Z,45.47
2023-01-12T16:33:25.366Z,34.35
2023-01-12T16:35:55.455Z,31.27
2023-01-12T16:38:22.883Z,24.77
2023-01-12T16:40:51.271Z,22.83
2023-01-12T16:43:21.090Z,23.15
2023-01-12T16:45:49.002Z,56.75
2023-01-12T16:48:19.588Z,27.37
2023-01-12T16:50:47.465Z,26.17
2023-01-12T16:53:14.855Z,24.70
2023-01-12T16:55:42.291Z,31.65
2023-01-12T16:58:10.023Z,31.90
2023-01-12T17:00:37.562Z,35.80
2023-01-12T17:03:05.346Z,29.12
2023-01-12T17:05:34.428Z,30.27
2023-01-12T17:08:01.991Z,28.12
2023-01-12T17:10:29.600Z,28.08
2023-01-12T17:12:59.741Z,30.85
2023-01-12T17:15:28.991Z,30.80
2023-01-12T17:17:57.193Z,35.60
2023-01-12T17:20:24.707Z,53.90
2023-01-12T17:22:52.285Z,42.83
2023-01-12T17:25:20.249Z,35.45
2023-01-12T17:27:48.346Z,32.72
2023-01-12T17:30:16.670Z,31.10
2023-01-12T17:32:44.463Z,30.08
2023-01-12T17:35:14.530Z,28.42
2023-01-12T17:37:42.209Z,36.78
2023-01-12T17:40:10.602Z,47.55
2023-01-12T17:42:56.467Z,43.83
2023-01-12T17:45:24.192Z,30.50
2023-01-12T17:47:51.680Z,32.83
2023-01-12T17:50:19.295Z,25.67
2023-01-12T17:52:47.721Z,32.33
2023-01-12T17:55:15.124Z,24.15
2023-01-12T17:57:42.527Z,34.67
2023-01-12T18:00:15.644Z,35.47
2023-01-12T18:02:43.712Z,28.75
2023-01-12T18:05:11.379Z,23.08
2023-01-12T18:07:40.727Z,25.08
2023-01-12T18:10:11.461Z,24.73
2023-01-12T18:12:39.403Z,25.05
2023-01-12T18:15:07.612Z,28.67
2023-01-12T18:17:35.492Z,24.48
2023-01-12T18:20:04.156Z,21.77
2023-01-12T18:22:31.818Z,23.25
2023-01-12T18:24:59.837Z,26.40
2023-01-12T18:27:28.873Z,27.13
2023-01-12T18:29:56.805Z,20.67
2023-01-12T18:32:24.896Z,24.83
2023-01-12T18:34:52.597Z,24.55
2023-01-12T18:37:20.068Z,31.77
2023-01-12T18:39:49.363Z,31.42
2023-01-12T18:42:35.421Z,34.55
2023-01-12T18:45:04.827Z,31.37
2023-01-12T18:47:51.675Z,51.17
2023-01-12T18:50:38.083Z,42.78
2023-01-12T18:53:25.509Z,64.68
2023-01-12T18:55:57.783Z,63.00
2023-01-12T18:58:28.643Z,70.75
2023-01-12T19:00:59.294Z,62.28
2023-01-12T19:03:28.554Z,69.37
2023-01-12T19:09:22.050Z,79.53
2023-01-12T19:11:50.319Z,76.37
2023-01-12T19:14:37.050Z,82.47
2023-01-12T19:17:24.413Z,98.32
2023-01-12T19:19:52.144Z,76.10
2023-01-12T19:22:39.433Z,73.50
2023-01-12T19:25:29.146Z,68.22
2023-01-12T19:28:17.206Z,87.12
2023-01-12T19:30:47.193Z,74.70
2023-01-12T19:33:17.532Z,73.18
2023-01-12T19:35:46.837Z,86.43
2023-01-12T19:38:15.014Z,83.53
2023-01-12T19:40:46.140Z,73.82
2023-01-12T19:43:25.182Z,73.82
2023-01-12T19:45:59.363Z,73.12
2023-01-12T19:48:27.839Z,60.88
2023-01-12T19:50:56.727Z,56.17
2023-01-12T19:53:28.387Z,46.22
2023-01-12T19:55:56.364Z,42.92
2023-01-12T19:58:25.139Z,53.10
2023-01-12T20:00:56.118Z,69.65
2023-01-12T20:03:25.430Z,43.10
2023-01-12T20:05:54.094Z,46.40
2023-01-12T20:08:25.685Z,43.87
2023-01-12T20:10:55.643Z,50.58
2023-01-12T20:13:25.060Z,32.38
2023-01-12T20:15:55.105Z,39.42
2023-01-12T20:18:23.430Z,35.00
2023-01-12T20:20:53.508Z,37.75
2023-01-12T20:23:23.968Z,59.53
2023-01-12T20:25:52.793Z,53.55
2023-01-12T20:28:21.163Z,54.53
2023-01-12T20:30:50.086Z,68.75
2023-01-12T20:33:22.712Z,101.68
2023-01-12T20:35:53.921Z,123.30
2023-01-12T20:38:23.090Z,152.57
2023-01-12T20:40:52.621Z,135.88
2023-01-12T20:43:20.579Z,152.93
2023-01-12T20:45:49.520Z,123.13
2023-01-12T20:48:17.708Z,106.68
2023-01-12T20:50:46.922Z,119.30
2023-01-12T20:53:15.758Z,123.85
2023-01-12T20:55:48.836Z,141.75
2023-01-12T20:58:17.315Z,70.85
2023-01-12T21:00:46.119Z,76.35
2023-01-12T21:03:13.929Z,84.20
2023-01-12T21:05:46.236Z,117.47
2023-01-12T21:08:15.835Z,112.85
2023-01-12T21:10:50.238Z,83.78
2023-01-12T21:13:18.741Z,92.93
2023-01-12T21:15:46.880Z,94.93
2023-01-12T21:18:14.502Z,74.62
2023-01-12T21:20:43.148Z,80.65
2023-01-12T21:23:11.439Z,77.78
2023-01-12T21:25:43.239Z,102.07
2023-01-12T21:28:11.590Z,108.05
2023-01-12T21:30:40.045Z,93.43
2023-01-12T21:33:08.076Z,65.37
2023-01-12T21:35:36.188Z,73.75
2023-01-12T21:38:03.833Z,68.65
2023-01-12T21:40:31.721Z,66.18
2023-01-12T21:43:08.491Z,57.70
2023-01-12T21:45:50.877Z,55.85
2023-01-12T21:48:22.072Z,56.28
2023-01-12T21:50:49.745Z,48.63
2023-01-12T21:53:19.338Z,51.35
2023-01-12T21:55:58.313Z,53.05
2023-01-12T21:58:27.376Z,55.97
2023-01-12T22:00:55.997Z,52.10
2023-01-12T22:03:24.750Z,56.20
2023-01-12T22:05:52.849Z,48.47
2023-01-12T22:08:20.933Z,52.88
2023-01-12T22:10:48.633Z,78.50
2023-01-12T22:13:18.078Z,80.03
2023-01-12T22:15:48.394Z,59.00
2023-01-12T22:18:16.049Z,64.80
2023-01-12T22:20:43.831Z,46.30
2023-01-12T22:23:12.702Z,48.58
2023-01-12T22:25:41.193Z,43.35
2023-01-12T22:28:09.608Z,34.40
2023-01-12T22:30:36.989Z,30.05
2023-01-12T22:33:04.638Z,34.80
2023-01-12T22:35:32.159Z,35.88
2023-01-12T22:37:59.577Z,30.20
2023-01-12T22:40:45.314Z,27.25
2023-01-12T22:43:28.969Z,26.95
2023-01-12T22:45:58.079Z,26.37
2023-01-12T22:48:26.887Z,27.50
2023-01-12T22:50:57.036Z,23.70
2023-01-12T22:53:24.513Z,28.52
2023-01-12T22:55:52.393Z,23.90
2023-01-12T22:58:19.769Z,27.33
2023-01-12T23:00:49.224Z,25.37
2023-01-12T23:03:17.049Z,24.12
2023-01-12T23:05:49.326Z,23.45
2023-01-12T23:08:17.562Z,19.77
2023-01-12T23:10:45.304Z,18.62
2023-01-12T23:13:19.115Z,17.98
2023-01-12T23:15:46.912Z,19.40
2023-01-12T23:18:17.423Z,23.08
2023-01-12T23:20:46.437Z,22.87
2023-01-12T23:23:17.915Z,36.75
2023-01-12T23:25:48.051Z,33.55
2023-01-12T23:28:16.006Z,42.62
2023-01-12T23:30:43.765Z,25.12
2023-01-12T23:33:11.471Z,35.95
2023-01-12T23:35:41.571Z,46.83
2023-01-12T23:38:15.434Z,63.22
2023-01-12T23:40:43.380Z,67.82
2023-01-12T23:43:10.880Z,60.50
2023-01-12T23:45:38.373Z,56.28
2023-01-12T23:48:07.783Z,60.63
2023-01-12T23:50:35.296Z,62.75
2023-01-12T23:53:02.784Z,60.97
2023-01-12T23:55:30.588Z,53.70
2023-01-12T23:57:58.082Z,59.33
